Dawson Creek, Canada
Current Conditions -  °F | °C
As of 11:00 PM on Tuesday 27 Jan 2015 (Local Time) from CYDQ Reporting Station
Overcast Overcast  
Wind Chill: 11°   Ceiling: 1200
Heat Index: 18°   Visibility: 9mi
Dew Point: 14°   Wind: 5mph
Humidity: 86%   Direction: 340°NNW
Pressure: 29.97"   Gusts: NA
Location:  55.76°N, 120.24°W
Report Text: CYDQ 280600Z AUTO 34004KT 9SM OVC012 M08/M10 A2997 RMK SLP191
Loading
Personal Weather Stations






























Interactive Weather Map New forecast layout! Learn more

10-Day Weather Forecast

Advertisements
Track Severe Weather on mobile